createdAt,value
2023-03-03T00:01:16.667Z,99607.61
2023-03-03T00:05:14.591Z,99605.81
2023-03-03T00:09:12.539Z,99598.69
2023-03-03T00:13:10.607Z,99602.40
2023-03-03T00:17:08.572Z,99604.73
2023-03-03T00:21:14.641Z,99607.16
2023-03-03T00:25:45.608Z,99603.51
2023-03-03T00:30:08.565Z,99600.87
2023-03-03T00:34:08.465Z,99595.48
2023-03-03T00:38:11.538Z,99592.22
2023-03-03T00:42:10.673Z,99583.02
2023-03-03T00:46:10.574Z,99580.42
2023-03-03T00:50:14.532Z,99577.58
2023-03-03T00:54:13.549Z,99577.09
2023-03-03T00:58:11.520Z,99577.60
2023-03-03T01:02:11.546Z,99576.38
2023-03-03T01:06:09.428Z,99578.91
2023-03-03T01:10:07.499Z,99575.21
2023-03-03T01:14:07.440Z,99572.52
2023-03-03T01:18:05.512Z,99567.54
2023-03-03T01:22:03.444Z,99558.25
2023-03-03T01:26:01.560Z,99554.55
2023-03-03T01:29:59.438Z,99551.88
2023-03-03T01:33:57.422Z,99546.04
2023-03-03T01:37:55.397Z,99542.87
2023-03-03T01:41:53.439Z,99541.50
2023-03-03T01:46:03.440Z,99543.45
2023-03-03T01:50:16.471Z,99544.20
2023-03-03T01:54:21.410Z,99543.61
2023-03-03T01:58:25.386Z,99537.86
2023-03-03T02:02:24.395Z,99536.24
2023-03-03T02:06:25.395Z,99537.48
2023-03-03T02:10:28.285Z,99532.88
2023-03-03T02:14:27.348Z,99532.73
2023-03-03T02:18:33.656Z,99529.39
2023-03-03T02:22:36.460Z,99526.89
2023-03-03T02:26:38.426Z,99522.92
2023-03-03T02:30:38.341Z,99519.48
2023-03-03T02:34:36.291Z,99516.42
2023-03-03T02:38:58.386Z,99512.64
2023-03-03T02:42:56.467Z,99511.69
2023-03-03T02:46:58.354Z,99511.61
2023-03-03T02:50:56.275Z,99507.73
2023-03-03T02:54:54.342Z,99503.95
2023-03-03T02:58:53.223Z,99502.36
2023-03-03T03:02:51.367Z,99505.84
2023-03-03T03:06:49.238Z,99504.52
2023-03-03T03:10:47.332Z,99497.26
2023-03-03T03:14:45.295Z,99495.70
2023-03-03T03:18:43.388Z,99492.70
2023-03-03T03:22:41.254Z,99486.80
2023-03-03T03:26:40.226Z,99481.95
2023-03-03T03:30:38.267Z,99479.90
2023-03-03T03:34:38.211Z,99479.96
2023-03-03T03:38:38.240Z,99477.25
2023-03-03T03:42:36.234Z,99478.32
2023-03-03T03:46:34.212Z,99475.52
2023-03-03T03:50:33.452Z,99478.61
2023-03-03T03:54:31.171Z,99478.19
2023-03-03T03:58:33.237Z,99471.02
2023-03-03T04:02:31.306Z,99464.77
2023-03-03T04:06:29.200Z,99459.77
2023-03-03T04:10:29.199Z,99459.90
2023-03-03T04:14:28.305Z,99457.98
2023-03-03T04:18:26.143Z,99457.54
2023-03-03T04:22:24.184Z,99460.49
2023-03-03T04:26:23.168Z,99459.81
2023-03-03T04:30:22.366Z,99455.69
2023-03-03T04:34:21.170Z,99443.95
2023-03-03T04:38:19.288Z,99443.14
2023-03-03T04:42:18.139Z,99439.98
2023-03-03T04:46:16.319Z,99440.23
2023-03-03T04:50:15.139Z,99435.92
2023-03-03T04:54:13.231Z,99432.16
2023-03-03T04:58:11.106Z,99434.34
2023-03-03T05:02:09.158Z,99432.39
2023-03-03T05:06:07.061Z,99439.92
2023-03-03T05:10:07.246Z,99443.80
2023-03-03T05:14:05.248Z,99444.58
2023-03-03T05:18:03.141Z,99438.14
2023-03-03T05:22:01.099Z,99438.88
2023-03-03T05:25:59.165Z,99438.00
2023-03-03T05:29:57.062Z,99432.46
2023-03-03T05:33:56.264Z,99431.54
2023-03-03T05:37:56.101Z,99432.46
2023-03-03T05:41:54.093Z,99427.02
2023-03-03T05:45:52.067Z,99425.85
2023-03-03T05:49:50.025Z,99424.80
2023-03-03T05:53:48.048Z,99417.77
2023-03-03T05:57:46.098Z,99420.68
2023-03-03T06:01:44.055Z,99416.27
2023-03-03T06:05:42.138Z,99419.98
2023-03-03T06:09:40.013Z,99427.33
2023-03-03T06:13:38.196Z,99428.34
2023-03-03T06:17:35.999Z,99428.25
2023-03-03T06:21:34.060Z,99427.02
2023-03-03T06:25:32.044Z,99426.98
2023-03-03T06:29:30.062Z,99423.64
2023-03-03T06:33:27.925Z,99418.74
2023-03-03T06:37:26.067Z,99421.38
2023-03-03T06:41:23.960Z,99421.98
2023-03-03T06:45:21.973Z,99418.92
2023-03-03T06:49:19.889Z,99418.70
2023-03-03T06:53:26.075Z,99413.45
2023-03-03T06:57:41.941Z,99414.17
2023-03-03T07:01:19.709Z,99418.84
2023-03-03T07:04:43.901Z,99419.09
2023-03-03T07:08:14.505Z,99413.71
2023-03-03T07:11:41.147Z,99418.58
2023-03-03T07:15:37.287Z,99422.44
2023-03-03T07:19:04.169Z,99424.45
2023-03-03T07:22:31.124Z,99427.09
2023-03-03T07:25:56.207Z,99427.11
2023-03-03T07:29:31.367Z,99430.92
2023-03-03T07:32:57.892Z,99424.20
2023-03-03T07:36:32.871Z,99419.79
2023-03-03T07:39:57.406Z,99416.05
2023-03-03T07:43:39.637Z,99414.38
2023-03-03T07:47:30.814Z,99412.20
2023-03-03T07:50:54.839Z,99407.38
2023-03-03T07:54:25.932Z,99408.91
2023-03-03T07:57:52.476Z,99405.84
2023-03-03T08:01:50.918Z,99400.08
2023-03-03T08:05:37.000Z,99392.92
2023-03-03T08:09:28.479Z,99387.41
2023-03-03T08:12:52.628Z,99391.27
2023-03-03T08:16:16.699Z,99393.30
2023-03-03T08:19:40.774Z,99393.63
2023-03-03T08:23:06.729Z,99390.58
2023-03-03T08:26:30.695Z,99386.80
2023-03-03T08:29:54.770Z,99391.73
2023-03-03T08:33:19.267Z,99395.15
2023-03-03T08:36:43.217Z,99399.23
2023-03-03T08:40:08.156Z,99398.75
2023-03-03T08:43:32.342Z,99402.70
2023-03-03T08:46:56.764Z,99406.02
2023-03-03T08:50:21.332Z,99397.95
2023-03-03T08:53:45.291Z,99400.22
2023-03-03T08:57:09.206Z,99407.01
2023-03-03T09:00:33.789Z,99408.13
2023-03-03T09:03:57.861Z,99412.61
2023-03-03T09:07:21.945Z,99419.45
2023-03-03T09:10:45.990Z,99424.02
2023-03-03T09:14:15.327Z,99432.20
2023-03-03T09:17:39.334Z,99440.42
2023-03-03T09:21:03.511Z,99452.29
2023-03-03T09:24:32.604Z,99453.55
2023-03-03T09:27:59.167Z,99457.30
2023-03-03T09:31:28.842Z,99450.38
2023-03-03T09:34:53.137Z,99444.73
2023-03-03T09:38:32.917Z,99441.98
2023-03-03T09:42:11.055Z,99440.56
2023-03-03T09:45:45.492Z,99440.67
2023-03-03T09:49:34.518Z,99438.07
2023-03-03T09:53:20.791Z,99437.36
2023-03-03T09:57:18.813Z,99434.65
2023-03-03T10:01:14.769Z,99429.83
2023-03-03T10:05:08.006Z,99430.11
2023-03-03T10:09:05.853Z,99428.18
2023-03-03T10:12:44.558Z,99425.79
2023-03-03T10:16:17.978Z,99412.45
2023-03-03T10:19:48.037Z,99398.21
2023-03-03T10:23:38.132Z,99388.08
2023-03-03T10:27:27.557Z,99393.14
2023-03-03T10:31:10.740Z,99394.30
2023-03-03T10:34:44.274Z,99394.86
2023-03-03T10:38:32.152Z,99391.61
2023-03-03T10:42:02.135Z,99387.16
2023-03-03T10:45:56.171Z,99385.10
2023-03-03T10:49:27.553Z,99382.75
2023-03-03T10:53:04.500Z,99374.80
2023-03-03T10:56:52.526Z,99376.67
2023-03-03T11:00:23.823Z,99379.73
2023-03-03T11:03:51.216Z,99375.48
2023-03-03T11:07:28.645Z,99370.48
2023-03-03T11:11:01.952Z,99363.45
2023-03-03T11:14:37.666Z,99363.58
2023-03-03T11:18:25.842Z,99364.02
2023-03-03T11:22:07.842Z,99360.11
2023-03-03T11:25:40.820Z,99361.37
2023-03-03T11:29:27.167Z,99356.14
2023-03-03T11:33:00.474Z,99356.95
2023-03-03T11:36:33.923Z,99360.70
2023-03-03T11:40:08.409Z,99356.96
2023-03-03T11:43:56.608Z,99354.64
2023-03-03T11:47:39.723Z,99352.46
2023-03-03T11:51:24.814Z,99347.13
2023-03-03T11:55:24.714Z,99337.52
2023-03-03T11:58:59.954Z,99323.73
2023-03-03T12:02:36.340Z,99326.11
2023-03-03T12:06:18.802Z,99320.61
2023-03-03T12:10:04.593Z,99321.79
2023-03-03T12:13:49.394Z,99314.11
2023-03-03T12:17:42.911Z,99313.12
2023-03-03T12:21:52.102Z,99303.93
2023-03-03T12:25:31.488Z,99298.13
2023-03-03T12:29:05.476Z,99305.42
2023-03-03T12:33:05.545Z,99295.21
2023-03-03T12:36:45.334Z,99295.39
2023-03-03T12:40:10.888Z,99285.02
2023-03-03T12:43:42.245Z,99284.27
2023-03-03T12:47:41.553Z,99284.98
2023-03-03T12:51:43.221Z,99285.50
2023-03-03T12:55:12.284Z,99282.80
2023-03-03T12:59:15.566Z,99279.36
2023-03-03T13:02:56.386Z,99283.45
2023-03-03T13:06:30.150Z,99283.40
2023-03-03T13:10:06.175Z,99283.03
2023-03-03T13:13:49.510Z,99282.30
2023-03-03T13:17:32.169Z,99283.13
2023-03-03T13:21:09.350Z,99280.52
2023-03-03T13:25:04.247Z,99283.91
2023-03-03T13:28:35.854Z,99285.95
2023-03-03T13:32:18.427Z,99275.30
2023-03-03T13:35:59.321Z,99277.41
2023-03-03T13:39:39.570Z,99276.90
2023-03-03T13:43:13.879Z,99284.28
2023-03-03T13:46:53.112Z,99280.67
2023-03-03T13:50:42.947Z,99281.98
2023-03-03T13:54:14.716Z,99277.48
2023-03-03T13:57:45.161Z,99277.88
2023-03-03T14:01:39.338Z,99275.23
2023-03-03T14:05:12.993Z,99272.55
2023-03-03T14:08:55.719Z,99268.76
2023-03-03T14:12:43.372Z,99270.48
2023-03-03T14:16:16.513Z,99265.42
2023-03-03T14:19:49.296Z,99267.19
2023-03-03T14:23:19.552Z,99264.42
2023-03-03T14:26:49.681Z,99262.52
2023-03-03T14:30:57.429Z,99258.02
2023-03-03T14:34:56.363Z,99258.16
2023-03-03T14:38:56.324Z,99258.22
2023-03-03T14:43:06.572Z,99258.54
2023-03-03T14:47:26.384Z,99259.15
2023-03-03T14:52:10.339Z,99260.98
2023-03-03T14:56:08.341Z,99259.42
2023-03-03T15:00:17.425Z,99256.13
2023-03-03T15:04:19.422Z,99249.95
2023-03-03T15:08:19.305Z,99245.52
2023-03-03T15:12:47.451Z,99243.86
2023-03-03T15:16:51.276Z,99250.52
2023-03-03T15:21:01.345Z,99253.39
2023-03-03T15:25:06.287Z,99254.48
2023-03-03T15:29:19.406Z,99258.42
2023-03-03T15:33:34.504Z,99255.35
2023-03-03T15:37:44.257Z,99256.52
2023-03-03T15:41:55.232Z,99260.08
2023-03-03T15:46:11.335Z,99255.71
2023-03-03T15:50:35.297Z,99252.29
2023-03-03T15:54:41.366Z,99256.31
2023-03-03T15:59:03.317Z,99250.46
2023-03-03T16:03:09.400Z,99253.67
2023-03-03T16:07:31.216Z,99262.27
2023-03-03T16:11:59.245Z,99268.94
2023-03-03T16:16:11.254Z,99275.39
2023-03-03T16:20:18.294Z,99282.27
2023-03-03T16:24:27.228Z,99283.33
2023-03-03T16:28:34.194Z,99282.77
2023-03-03T16:32:47.256Z,99285.17
2023-03-03T16:37:10.226Z,99283.71
2023-03-03T16:41:16.173Z,99283.64
2023-03-03T16:45:35.220Z,99285.30
2023-03-03T16:49:48.196Z,99288.50
2023-03-03T16:54:08.291Z,99291.88
2023-03-03T16:58:28.129Z,99290.57
2023-03-03T17:02:47.258Z,99297.31
2023-03-03T17:07:04.127Z,99295.78
2023-03-03T17:11:07.180Z,99305.96
2023-03-03T17:15:23.160Z,99305.37
2023-03-03T17:19:30.159Z,99303.26
2023-03-03T17:23:53.093Z,99305.48
2023-03-03T17:28:09.131Z,99303.83
2023-03-03T17:32:34.092Z,99301.40
2023-03-03T17:36:52.120Z,99298.30
2023-03-03T17:41:15.049Z,99293.65
2023-03-03T17:45:24.187Z,99291.92
2023-03-03T17:49:52.069Z,99291.95
2023-03-03T17:54:10.133Z,99292.79
2023-03-03T17:58:30.114Z,99291.27
2023-03-03T18:03:02.216Z,99292.21
2023-03-03T18:07:20.057Z,99287.75
2023-03-03T18:11:24.117Z,99291.23
2023-03-03T18:15:46.066Z,99294.21
2023-03-03T18:20:24.234Z,99295.17
2023-03-03T18:24:40.020Z,99292.84
2023-03-03T18:28:52.091Z,99287.19
2023-03-03T18:33:14.049Z,99287.10
2023-03-03T18:37:14.002Z,99288.19
2023-03-03T18:41:18.010Z,99283.16
2023-03-03T18:45:35.039Z,99285.52
2023-03-03T18:49:34.043Z,99284.32
2023-03-03T18:53:45.026Z,99287.48
2023-03-03T18:57:42.934Z,99283.54
2023-03-03T19:01:49.172Z,99281.50
2023-03-03T19:06:03.990Z,99279.44
2023-03-03T19:10:05.040Z,99282.64
2023-03-03T19:14:04.023Z,99283.61
2023-03-03T19:18:05.930Z,99284.86
2023-03-03T19:22:25.968Z,99286.71
2023-03-03T19:26:50.006Z,99286.20
2023-03-03T19:31:12.980Z,99285.18
2023-03-03T19:35:16.952Z,99278.23
2023-03-03T19:39:19.022Z,99275.38
2023-03-03T19:43:46.889Z,99268.54
2023-03-03T19:48:00.857Z,99268.23
2023-03-03T19:52:11.951Z,99266.70
2023-03-03T19:56:34.387Z,99265.16
2023-03-03T20:00:54.891Z,99268.16
2023-03-03T20:05:05.053Z,99260.30
2023-03-03T20:09:26.905Z,99256.69
2023-03-03T20:14:08.926Z,99248.86
2023-03-03T20:18:17.947Z,99247.39
2023-03-03T20:22:44.828Z,99246.65
2023-03-03T20:26:54.098Z,99236.28
2023-03-03T20:31:11.945Z,99226.42
2023-03-03T20:35:44.890Z,99217.22
2023-03-03T20:39:48.905Z,99211.65
2023-03-03T20:44:14.884Z,99199.10
2023-03-03T20:48:35.810Z,99195.51
2023-03-03T20:52:54.819Z,99194.23
2023-03-03T20:57:04.837Z,99193.86
2023-03-03T21:01:40.879Z,99192.35
2023-03-03T21:05:38.852Z,99195.39
2023-03-03T21:09:41.841Z,99193.05
2023-03-03T21:13:52.830Z,99195.19
2023-03-03T21:17:50.907Z,99201.48
2023-03-03T21:22:00.833Z,99208.20
2023-03-03T21:26:06.835Z,99201.67
2023-03-03T21:30:19.788Z,99195.86
2023-03-03T21:34:32.133Z,99195.52
2023-03-03T21:38:46.713Z,99190.42
2023-03-03T21:42:55.785Z,99196.49
2023-03-03T21:46:53.690Z,99197.77
2023-03-03T21:50:53.804Z,99178.19
2023-03-03T21:54:51.718Z,99172.84
2023-03-03T21:58:50.709Z,99158.79
2023-03-03T22:02:48.723Z,99156.44
2023-03-03T22:06:46.731Z,99154.64
2023-03-03T22:10:44.907Z,99143.85
2023-03-03T22:14:42.751Z,99152.42
2023-03-03T22:18:41.257Z,99143.55
2023-03-03T22:22:38.884Z,99143.14
2023-03-03T22:26:36.956Z,99141.38
2023-03-03T22:30:34.700Z,99141.58
2023-03-03T22:34:32.787Z,99144.64
2023-03-03T22:38:31.760Z,99135.53
2023-03-03T22:42:29.664Z,99133.89
2023-03-03T22:46:27.770Z,99131.48
2023-03-03T22:50:26.641Z,99130.23
2023-03-03T22:54:24.769Z,99129.81
2023-03-03T22:58:22.619Z,99113.27
2023-03-03T23:02:20.627Z,99104.13
2023-03-03T23:06:18.614Z,99101.33
2023-03-03T23:10:17.727Z,99095.73
2023-03-03T23:14:15.662Z,99088.70
2023-03-03T23:18:13.653Z,99082.62
2023-03-03T23:22:11.589Z,99076.40
2023-03-03T23:26:09.626Z,99075.10
2023-03-03T23:30:09.573Z,99070.14
2023-03-03T23:34:07.696Z,99065.59
2023-03-03T23:38:05.576Z,99060.01
2023-03-03T23:42:03.673Z,99051.14
2023-03-03T23:46:01.548Z,99046.77
2023-03-03T23:49:59.808Z,99042.60
2023-03-03T23:53:57.579Z,99036.70
2023-03-03T23:58:02.530Z,99036.96
